Time;durP1;ratioP1;P1;durP2;ratioP2;P2;SDS_P1;SDS_P2;PMS_P1;PMS_P2;Temp;Humidity;BMP_temperature;BMP_pressure;BME280_temperature;BME280_humidity;BME280_pressure;Samples;Min_cycle;Max_cycle;Signal;HPM_P1;HPM_P2
2023/01/19 00:01:21;;;;;;;29.88;3.53;;;;;;;12.88;41.23;93612.88;5038544;28;20033;-76
2023/01/19 00:03:47;;;;;;;17.83;3.03;;;;;;;12.65;41.62;93583.34;5055283;28;20024;-77
2023/01/19 00:06:12;;;;;;;17.60;2.42;;;;;;;12.89;41.57;93590.22;5055302;28;20471;-77
2023/01/19 00:08:38;;;;;;;31.05;3.55;;;;;;;12.86;42.07;93601.78;5055353;28;20098;-77
2023/01/19 00:11:03;;;;;;;27.33;3.40;;;;;;;12.80;42.19;93588.66;5038714;28;20403;-76
2023/01/19 00:13:29;;;;;;;17.45;3.00;;;;;;;12.92;42.06;93603.72;5038810;28;20025;-76
2023/01/19 00:15:55;;;;;;;20.95;2.58;;;;;;;12.85;42.26;93594.97;5055082;28;20120;-77
2023/01/19 00:18:20;;;;;;;17.38;2.60;;;;;;;12.60;42.64;93580.44;5055239;28;20561;-76
2023/01/19 00:20:45;;;;;;;20.10;2.92;;;;;;;12.78;42.34;93595.81;5055058;28;20395;-76
2023/01/19 00:23:11;;;;;;;16.20;2.67;;;;;;;12.82;42.04;93599.72;5054918;28;20060;-76
2023/01/19 00:25:41;;;;;;;18.70;2.45;;;;;;;13.05;41.89;93586.72;5038149;28;20028;-76
2023/01/19 00:28:10;;;;;;;17.23;2.83;;;;;;;12.91;42.12;93609.91;5055522;28;20112;-76
2023/01/19 00:30:36;;;;;;;22.05;2.70;;;;;;;12.92;42.17;93611.53;5033590;28;20021;-77
2023/01/19 00:33:02;;;;;;;16.75;2.50;;;;;;;12.78;42.33;93578.38;5034812;28;20033;-76
2023/01/19 00:35:27;;;;;;;20.67;2.88;;;;;;;12.94;41.89;93585.31;5052523;28;20588;-76
2023/01/19 00:37:52;;;;;;;15.98;2.33;;;;;;;13.00;41.47;93576.81;5018296;28;20036;-76
2023/01/19 00:40:18;;;;;;;20.88;2.53;;;;;;;13.05;41.38;93592.75;5052542;28;20391;-76
2023/01/19 00:42:44;;;;;;;22.48;3.05;;;;;;;12.99;41.55;93575.19;5021707;28;20042;-76
2023/01/19 00:45:13;;;;;;;19.85;2.55;;;;;;;12.65;41.64;93526.03;5017855;28;20021;-76
2023/01/19 00:47:39;;;;;;;18.10;2.22;;;;;;;13.11;41.29;93591.25;5051350;28;20041;-76
2023/01/19 00:50:06;;;;;;;16.83;2.58;;;;;;;13.01;41.20;93554.97;5053269;28;20106;-77
2023/01/19 00:52:31;;;;;;;15.55;2.10;;;;;;;13.01;41.18;93578.44;5051995;28;20231;-76
2023/01/19 00:54:56;;;;;;;15.65;2.20;;;;;;;12.95;40.92;93564.31;5054422;28;20032;-77
2023/01/19 00:57:22;;;;;;;26.13;3.20;;;;;;;13.28;40.30;93564.09;5037593;28;20032;-76
2023/01/19 00:59:47;;;;;;;19.95;1.92;;;;;;;13.28;40.34;93564.09;5048158;28;20033;-76
2023/01/19 01:02:13;;;;;;;16.83;2.30;;;;;;;13.25;40.28;93577.47;5021067;28;20383;-77
2023/01/19 01:04:38;;;;;;;20.55;2.72;;;;;;;13.26;40.31;93545.25;5054221;28;20035;-77
2023/01/19 01:07:04;;;;;;;19.02;2.60;;;;;;;13.08;40.75;93549.88;5053980;28;20037;-77
2023/01/19 01:09:29;;;;;;;19.13;2.13;;;;;;;13.14;40.44;93551.78;5028633;28;20025;-76
2023/01/19 01:11:55;;;;;;;17.70;2.47;;;;;;;13.20;40.43;93551.09;5017726;28;20418;-77
2023/01/19 01:14:21;;;;;;;18.73;2.40;;;;;;;13.15;40.20;93528.16;5034115;28;20564;-76
2023/01/19 01:16:46;;;;;;;18.00;2.35;;;;;;;13.13;39.91;93542.34;5017703;28;20390;-76
2023/01/19 01:19:12;;;;;;;22.10;3.08;;;;;;;13.19;39.96;93544.25;5053415;28;20029;-76
2023/01/19 01:21:37;;;;;;;29.38;2.65;;;;;;;13.32;39.91;93548.94;5033993;28;20483;-76
2023/01/19 01:24:03;;;;;;;21.23;2.10;;;;;;;13.23;40.04;93540.31;5033835;28;20450;-76
2023/01/19 01:26:28;;;;;;;15.93;2.42;;;;;;;13.08;39.97;93511.59;5018214;28;20033;-76
2023/01/19 01:28:54;;;;;;;21.30;2.67;;;;;;;13.13;40.05;93522.31;5033701;28;20483;-76
2023/01/19 01:31:19;;;;;;;19.50;2.72;;;;;;;13.30;40.06;93523.03;5044259;28;20028;-77
2023/01/19 01:33:45;;;;;;;14.77;2.45;;;;;;;13.12;40.15;93527.69;5036884;28;20063;-76
2023/01/19 01:36:10;;;;;;;16.48;2.22;;;;;;;13.15;40.11;93543.00;5043655;28;20414;-77
2023/01/19 01:38:37;;;;;;;10.77;1.92;;;;;;;13.24;39.78;93536.75;5015278;28;20039;-76
2023/01/19 01:41:03;;;;;;;15.40;2.03;;;;;;;13.31;39.32;93548.09;5033704;28;20033;-77
2023/01/19 01:43:57;;;;;;;18.30;2.15;;;;;;;13.27;39.57;93535.59;5051198;28;20439;-76
2023/01/19 01:46:22;;;;;;;20.48;2.28;;;;;;;13.25;39.88;93545.38;5037742;28;20113;-76
2023/01/19 01:48:56;;;;;;;14.77;2.72;;;;;;;13.23;39.72;93566.38;5033442;28;20155;-76
2023/01/19 01:51:26;;;;;;;9.25;2.10;;;;;;;13.37;39.43;93567.47;5016917;28;20033;-77
2023/01/19 01:54:05;;;;;;;19.73;2.10;;;;;;;13.25;39.68;93556.59;5030071;28;20411;-76
2023/01/19 01:56:39;;;;;;;13.52;1.60;;;;;;;13.36;39.17;93576.28;5034138;28;20490;-77
2023/01/19 01:59:06;;;;;;;23.35;2.03;;;;;;;13.39;38.82;93548.06;5017327;28;20039;-76
2023/01/19 02:04:16;;;;;;;15.65;2.08;;;;;;;13.49;38.56;93571.31;5043518;28;20516;-76
2023/01/19 02:14:54;;;;;;;22.65;3.30;;;;;;;13.47;38.63;93591.53;5036692;28;20549;-76
2023/01/19 02:17:20;;;;;;;17.98;1.80;;;;;;;13.30;38.54;93585.63;5033019;28;20033;-76
2023/01/19 02:19:45;;;;;;;13.63;1.75;;;;;;;13.28;38.45;93571.13;5033076;28;20028;-76
2023/01/19 02:22:34;;;;;;;16.52;3.22;;;;;;;13.45;38.42;93580.44;5006016;28;20030;-76
2023/01/19 02:25:03;;;;;;;16.45;3.03;;;;;;;13.16;38.35;93568.09;5017128;28;20044;-76
2023/01/19 02:27:29;;;;;;;18.42;2.25;;;;;;;13.08;38.57;93565.53;5032880;28;20041;-76
2023/01/19 02:29:54;;;;;;;20.33;2.72;;;;;;;13.26;38.28;93571.31;5050792;28;20025;-76
2023/01/19 02:32:20;;;;;;;19.27;3.53;;;;;;;13.37;37.70;93525.72;5015687;28;20044;-77
2023/01/19 02:34:45;;;;;;;13.23;1.92;;;;;;;13.23;37.96;93547.31;5032811;28;20017;-76
2023/01/19 02:37:12;;;;;;;10.27;2.72;;;;;;;13.23;37.99;93579.44;5050574;28;20041;-77
2023/01/19 02:39:37;;;;;;;15.68;2.70;;;;;;;13.37;37.93;93576.13;5034026;28;20032;-76
2023/01/19 02:42:08;;;;;;;18.25;1.80;;;;;;;13.28;38.08;93566.72;5067699;28;20033;-76
2023/01/19 02:44:33;;;;;;;10.48;1.50;;;;;;;13.36;37.80;93587.53;5053418;28;20079;-76
2023/01/19 02:46:59;;;;;;;11.65;2.13;;;;;;;13.30;37.83;93558.72;5052703;28;20474;-76
2023/01/19 02:49:26;;;;;;;12.23;2.00;;;;;;;13.31;37.91;93542.88;5065519;28;20028;-76
2023/01/19 02:51:52;;;;;;;16.27;2.20;;;;;;;13.35;37.74;93574.66;5019999;28;20060;-76
2023/01/19 02:54:32;;;;;;;16.80;2.00;;;;;;;13.30;38.00;93580.41;5016290;28;20407;-76
2023/01/19 02:57:27;;;;;;;13.50;1.80;;;;;;;13.27;37.65;93588.56;5032572;28;20098;-76
2023/01/19 03:00:16;;;;;;;20.30;4.32;;;;;;;13.24;38.04;93554.19;5049230;28;20060;-76
2023/01/19 03:03:11;;;;;;;11.73;2.10;;;;;;;13.25;38.09;93574.84;5052655;28;20036;-77
2023/01/19 03:05:45;;;;;;;18.60;2.10;;;;;;;13.36;37.28;93582.31;5013589;28;20037;-76
2023/01/19 03:08:38;;;;;;;10.15;1.70;;;;;;;13.27;37.54;93577.34;5061876;28;20422;-76
2023/01/19 03:11:13;;;;;;;16.15;1.70;;;;;;;13.17;37.63;93573.09;5054193;28;20036;-76
2023/01/19 03:13:43;;;;;;;13.48;1.90;;;;;;;13.13;38.03;93591.91;5020121;28;20037;-77
2023/01/19 03:16:24;;;;;;;15.48;1.95;;;;;;;13.21;37.62;93596.25;5033231;28;20525;-77
2023/01/19 03:19:12;;;;;;;13.45;2.35;;;;;;;13.07;38.06;93576.94;5037183;28;20037;-76
2023/01/19 03:21:37;;;;;;;16.30;2.50;;;;;;;13.02;37.77;93568.81;5020142;28;20037;-76
2023/01/19 03:24:04;;;;;;;18.92;2.70;;;;;;;13.10;37.90;93597.44;5036285;28;20517;-76
2023/01/19 03:26:30;;;;;;;16.25;2.00;;;;;;;13.17;37.84;93598.38;5023145;28;20025;-76
2023/01/19 03:28:57;;;;;;;13.40;2.47;;;;;;;12.96;37.90;93591.19;5019688;28;20098;-76
2023/01/19 03:31:23;;;;;;;15.57;2.15;;;;;;;13.06;37.75;93596.16;5047005;28;20028;-76
2023/01/19 03:33:54;;;;;;;13.70;2.38;;;;;;;13.03;38.12;93601.72;5039426;28;20035;-76
2023/01/19 03:36:26;;;;;;;21.45;2.53;;;;;;;13.11;37.71;93588.63;5020734;28;20029;-77
2023/01/19 03:38:51;;;;;;;13.73;2.05;;;;;;;12.92;37.87;93600.31;5036148;28;20411;-76
2023/01/19 03:41:18;;;;;;;13.02;1.63;;;;;;;13.15;37.56;93595.16;5019480;28;20029;-76
2023/01/19 03:43:43;;;;;;;18.40;2.22;;;;;;;13.03;37.79;93596.50;5020219;28;20036;-76
2023/01/19 03:46:09;;;;;;;27.52;2.58;;;;;;;13.21;37.75;93607.50;5053768;28;20032;-76
2023/01/19 03:48:35;;;;;;;18.77;2.50;;;;;;;13.33;37.29;93615.75;5039138;28;20032;-76
2023/01/19 03:51:05;;;;;;;17.60;2.13;;;;;;;13.07;37.73;93601.22;5022419;28;20031;-76
2023/01/19 03:53:30;;;;;;;17.67;2.15;;;;;;;13.11;37.58;93606.88;5017236;28;20029;-76
2023/01/19 03:55:55;;;;;;;14.93;1.90;;;;;;;13.12;37.57;93587.66;5053322;28;20410;-76
2023/01/19 03:58:21;;;;;;;22.33;2.83;;;;;;;13.17;37.88;93614.81;5035594;28;20094;-76
2023/01/19 04:00:46;;;;;;;20.90;2.92;;;;;;;13.00;37.25;93594.25;5018993;28;20494;-76
2023/01/19 04:03:13;;;;;;;26.38;2.92;;;;;;;13.06;37.18;93609.19;5062270;28;20036;-76
2023/01/19 04:05:38;;;;;;;14.75;2.38;;;;;;;13.14;37.62;93627.41;5055304;28;20051;-76
2023/01/19 04:08:04;;;;;;;17.00;2.95;;;;;;;12.93;37.52;93613.19;5055314;28;20478;-76
2023/01/19 04:10:30;;;;;;;21.27;3.45;;;;;;;13.27;36.80;93639.91;5073391;28;20025;-77
2023/01/19 04:12:59;;;;;;;29.90;2.60;;;;;;;13.07;36.80;93629.09;5034565;28;20056;-76
2023/01/19 04:15:25;;;;;;;21.08;4.95;;;;;;;13.24;36.75;93635.03;5018669;28;20466;-76
2023/01/19 04:17:51;;;;;;;27.73;3.80;;;;;;;13.12;36.79;93614.56;5035156;28;20061;-76
2023/01/19 04:20:16;;;;;;;24.48;4.40;;;;;;;13.26;36.77;93630.47;5036015;28;20021;-76
2023/01/19 04:22:42;;;;;;;25.25;5.05;;;;;;;13.32;36.07;93632.41;5054663;28;20033;-76
2023/01/19 04:25:08;;;;;;;21.00;2.80;;;;;;;13.23;36.13;93638.59;5052729;28;20049;-76
2023/01/19 04:27:34;;;;;;;19.73;5.88;;;;;;;13.41;36.19;93653.03;5035266;28;20036;-77
2023/01/19 04:30:00;;;;;;;22.98;2.88;;;;;;;13.16;36.16;93633.25;5038462;28;20043;-77
2023/01/19 04:32:25;;;;;;;24.15;4.22;;;;;;;13.20;36.09;93626.72;5037974;28;20624;-76
2023/01/19 04:34:51;;;;;;;29.10;3.70;;;;;;;13.21;36.12;93664.84;5072972;28;20029;-77
2023/01/19 04:37:16;;;;;;;21.08;2.90;;;;;;;13.09;35.84;93654.00;5072635;28;20456;-76
2023/01/19 04:39:42;;;;;;;26.63;4.10;;;;;;;13.24;35.79;93671.53;5047721;28;20035;-76
2023/01/19 04:42:07;;;;;;;22.83;3.90;;;;;;;13.23;35.78;93664.66;5037989;28;20028;-76
2023/01/19 04:44:33;;;;;;;30.70;7.00;;;;;;;13.29;35.86;93659.63;5054610;28;20027;-76
2023/01/19 04:46:58;;;;;;;25.00;3.92;;;;;;;13.24;35.62;93667.13;5054629;28;20562;-76
2023/01/19 04:49:24;;;;;;;28.85;4.68;;;;;;;13.22;35.99;93689.94;5023511;28;20029;-76
2023/01/19 04:51:52;;;;;;;28.85;4.32;;;;;;;13.09;36.12;93671.41;5034579;28;20037;-76
2023/01/19 04:54:18;;;;;;;24.45;5.70;;;;;;;13.26;35.61;93683.44;5018319;28;20024;-76
2023/01/19 04:56:43;;;;;;;33.67;4.82;;;;;;;13.16;35.65;93686.22;5009730;28;20037;-76
2023/01/19 04:59:09;;;;;;;24.45;2.97;;;;;;;13.11;35.72;93692.94;5046116;28;20044;-77
2023/01/19 05:01:34;;;;;;;29.92;3.72;;;;;;;13.15;35.62;93691.63;5032859;28;20029;-77
2023/01/19 05:04:00;;;;;;;33.33;4.65;;;;;;;13.09;34.84;93694.88;5066420;28;20021;-76
2023/01/19 05:06:26;;;;;;;25.92;3.30;;;;;;;13.23;35.15;93691.56;5024297;28;20039;-77
2023/01/19 05:08:51;;;;;;;20.23;4.00;;;;;;;13.05;34.88;93668.34;5067997;28;20033;-76
2023/01/19 05:11:17;;;;;;;25.33;3.50;;;;;;;13.19;35.05;93711.16;5050662;28;20498;-76
2023/01/19 05:13:42;;;;;;;24.20;3.53;;;;;;;13.14;35.08;93700.41;5022488;28;20032;-76
2023/01/19 05:16:08;;;;;;;25.15;3.90;;;;;;;13.05;35.27;93693.59;5048137;28;20036;-77
2023/01/19 05:18:35;;;;;;;26.15;3.55;;;;;;;13.10;35.24;93707.75;5047199;28;20041;-77
2023/01/19 05:21:02;;;;;;;20.05;4.25;;;;;;;13.24;34.81;93708.84;5050092;28;20035;-77
2023/01/19 05:23:29;;;;;;;24.92;4.90;;;;;;;13.30;34.50;93713.41;5033234;28;20048;-75
2023/01/19 05:25:55;;;;;;;26.35;3.05;;;;;;;13.15;34.77;93697.66;5032121;28;20056;-76
2023/01/19 05:28:21;;;;;;;21.90;3.63;;;;;;;13.20;34.84;93712.75;5045343;28;20072;-74
2023/01/19 05:30:48;;;;;;;30.10;3.88;;;;;;;13.33;34.75;93727.91;5047913;28;20133;-78
2023/01/19 05:33:14;;;;;;;28.13;3.38;;;;;;;13.29;34.91;93703.97;5048502;28;20064;-74
2023/01/19 05:35:39;;;;;;;24.15;2.83;;;;;;;13.42;34.85;93745.13;5050504;28;20071;-74
2023/01/19 05:38:06;;;;;;;25.50;3.40;;;;;;;13.26;34.88;93727.78;5049168;28;20059;-74
2023/01/19 05:40:32;;;;;;;22.80;2.35;;;;;;;13.24;34.59;93713.25;5056950;28;20033;-76
2023/01/19 05:43:00;;;;;;;25.77;4.22;;;;;;;13.18;34.48;93730.38;5023521;28;20032;-75
2023/01/19 05:45:27;;;;;;;23.30;6.50;;;;;;;13.33;34.02;93736.53;5009321;28;20036;-74
2023/01/19 05:47:55;;;;;;;27.98;5.07;;;;;;;13.22;34.37;93736.88;5031260;28;20414;-75
2023/01/19 05:50:21;;;;;;;28.70;3.40;;;;;;;13.12;33.97;93723.22;5010365;28;20434;-76
2023/01/19 05:52:46;;;;;;;23.13;3.33;;;;;;;13.15;33.61;93725.50;5035810;28;20032;-75
2023/01/19 05:55:13;;;;;;;34.35;4.38;;;;;;;13.25;33.14;93733.94;5067500;28;20109;-75
2023/01/19 05:57:39;;;;;;;22.42;3.47;;;;;;;13.23;33.61;93711.63;5039418;28;20039;-76
2023/01/19 06:00:05;;;;;;;30.77;3.58;;;;;;;13.19;34.06;93705.94;5041031;28;20529;-75
2023/01/19 06:02:31;;;;;;;26.73;3.22;;;;;;;13.33;33.83;93744.38;5043433;28;20029;-75
2023/01/19 06:04:56;;;;;;;33.22;4.32;;;;;;;13.12;34.33;93737.09;5038329;28;20021;-76
2023/01/19 06:07:22;;;;;;;26.70;4.57;;;;;;;13.26;34.48;93748.66;5028099;28;20419;-75
2023/01/19 06:09:47;;;;;;;21.80;3.10;;;;;;;13.10;34.52;93720.00;5021448;28;20130;-76
2023/01/19 06:12:13;;;;;;;29.38;5.55;;;;;;;13.22;34.29;93736.88;5058626;28;20044;-75
2023/01/19 06:14:39;;;;;;;26.50;4.45;;;;;;;13.21;34.08;93735.25;5049056;28;20085;-75
2023/01/19 06:17:05;;;;;;;22.15;3.58;;;;;;;13.25;34.40;93746.16;5020581;28;20117;-76
2023/01/19 06:19:31;;;;;;;24.10;2.97;;;;;;;13.41;34.24;93730.47;5030810;28;20530;-76
2023/01/19 06:21:57;;;;;;;33.72;3.63;;;;;;;13.47;33.81;93732.41;5046487;28;20059;-75
2023/01/19 06:24:24;;;;;;;24.38;4.40;;;;;;;13.21;34.13;93735.25;5013194;28;20124;-75
2023/01/19 06:26:49;;;;;;;21.02;4.18;;;;;;;13.37;33.86;93737.84;5047894;28;20037;-75
2023/01/19 06:29:15;;;;;;;19.60;3.08;;;;;;;13.06;34.15;93722.09;5046950;28;20568;-75
2023/01/19 06:31:41;;;;;;;23.20;2.83;;;;;;;13.38;33.62;93721.19;5027796;28;20041;-75
2023/01/19 06:34:06;;;;;;;26.60;3.60;;;;;;;13.32;33.04;93703.63;5033374;28;20079;-75
2023/01/19 06:36:32;;;;;;;30.75;3.83;;;;;;;13.47;32.21;93695.06;5039202;28;20113;-75
2023/01/19 06:38:57;;;;;;;22.98;4.07;;;;;;;13.67;33.05;93727.56;5056725;28;20025;-76
2023/01/19 06:41:23;;;;;;;21.60;3.47;;;;;;;13.52;32.82;93716.25;5036023;28;20024;-77
2023/01/19 06:43:48;;;;;;;25.27;3.47;;;;;;;13.39;32.94;93717.59;5063404;28;20036;-76
2023/01/19 06:46:14;;;;;;;21.08;3.90;;;;;;;13.43;33.44;93738.97;5047165;28;20021;-74
2023/01/19 06:48:40;;;;;;;21.30;3.80;;;;;;;13.49;33.31;93727.84;5050924;28;20037;-74
2023/01/19 06:51:05;;;;;;;22.30;4.15;;;;;;;13.60;33.10;93734.47;5007908;28;20048;-75
2023/01/19 06:53:31;;;;;;;30.75;4.50;;;;;;;13.41;33.11;93727.88;5031949;28;20028;-74
2023/01/19 06:56:00;;;;;;;23.33;4.00;;;;;;;13.60;32.88;93724.03;5008431;28;20060;-76
2023/01/19 06:58:29;;;;;;;22.73;3.90;;;;;;;13.57;34.33;93766.94;5026133;28;20062;-74
2023/01/19 07:01:01;;;;;;;27.88;3.72;;;;;;;13.54;33.10;93751.63;5026546;28;20061;-75
2023/01/19 07:03:27;;;;;;;24.38;4.22;;;;;;;13.55;32.72;93747.22;5006354;28;20037;-75
2023/01/19 07:05:53;;;;;;;25.23;4.50;;;;;;;13.45;33.00;93723.94;5028504;28;20608;-74
2023/01/19 07:08:19;;;;;;;18.90;3.47;;;;;;;13.75;32.29;93743.16;5031332;28;20033;-75
2023/01/19 07:10:44;;;;;;;25.77;5.18;;;;;;;13.96;32.54;93742.56;5044979;28;20414;-76
2023/01/19 07:13:10;;;;;;;30.67;4.43;;;;;;;13.91;32.35;93736.25;5039308;28;20384;-74
2023/01/19 07:15:36;;;;;;;23.23;3.70;;;;;;;13.99;32.48;93738.81;5032298;28;20120;-75
2023/01/19 07:18:06;;;;;;;36.58;4.05;;;;;;;13.91;32.63;93741.47;5047528;28;20028;-75
2023/01/19 07:20:32;;;;;;;29.25;6.30;;;;;;;13.98;32.94;93742.38;5034782;28;20036;-75
2023/01/19 07:22:57;;;;;;;21.60;4.05;;;;;;;14.02;32.29;93746.28;5039115;28;20040;-75
2023/01/19 07:25:23;;;;;;;21.70;3.47;;;;;;;14.17;31.61;93744.53;5030558;28;20033;-75
2023/01/19 07:27:48;;;;;;;27.23;4.13;;;;;;;14.18;31.73;93714.84;5057242;28;20035;-73
2023/01/19 07:30:16;;;;;;;24.67;3.60;;;;;;;14.47;31.32;93742.00;5094171;28;20036;-75
2023/01/19 07:32:42;;;;;;;29.48;3.50;;;;;;;14.51;31.50;93735.44;5061634;28;20025;-75
2023/01/19 07:35:08;;;;;;;29.65;5.10;;;;;;;14.44;31.47;93718.84;5022139;28;20415;-75
2023/01/19 07:37:34;;;;;;;27.23;3.22;;;;;;;14.34;31.47;93700.00;5043470;28;20037;-75
2023/01/19 07:39:59;;;;;;;22.90;3.00;;;;;;;14.78;31.07;93717.59;5053952;28;20394;-75
2023/01/19 07:42:25;;;;;;;33.92;3.28;;;;;;;14.50;31.07;93710.31;5045108;28;20033;-75
2023/01/19 07:44:50;;;;;;;27.55;3.88;;;;;;;14.63;30.64;93707.94;5020630;28;20025;-73
2023/01/19 07:47:16;;;;;;;26.13;4.00;;;;;;;14.92;30.51;93719.41;5044173;28;20031;-73
2023/01/19 07:49:41;;;;;;;25.52;4.25;;;;;;;15.37;29.69;93733.25;5038956;28;20055;-72
2023/01/19 07:52:07;;;;;;;20.88;3.65;;;;;;;15.56;29.38;93706.53;5025112;28;20045;-73
2023/01/19 07:54:32;;;;;;;33.20;4.78;;;;;;;15.68;28.37;93692.94;5032340;28;20510;-74
2023/01/19 07:56:59;;;;;;;32.47;3.70;;;;;;;15.95;28.21;93705.34;5045010;28;20036;-73
2023/01/19 07:59:26;;;;;;;28.42;3.20;;;;;;;16.61;27.54;93707.75;5017803;28;20522;-74
2023/01/19 08:01:52;;;;;;;26.65;3.72;;;;;;;16.14;27.72;93697.88;5042152;28;20090;-73
2023/01/19 08:04:18;;;;;;;28.35;3.65;;;;;;;16.50;27.38;93714.31;5071880;28;20032;-74
2023/01/19 08:06:44;;;;;;;28.52;4.78;;;;;;;16.74;26.93;93689.50;5050348;28;20651;-74
2023/01/19 08:09:10;;;;;;;21.33;3.70;;;;;;;16.47;27.68;93688.47;5058481;28;20043;-73
2023/01/19 08:11:36;;;;;;;26.90;4.93;;;;;;;16.30;27.58;93684.53;5067029;28;20035;-74
2023/01/19 08:14:02;;;;;;;28.35;4.20;;;;;;;16.18;27.83;93651.94;5050330;28;20045;-74
2023/01/19 08:16:27;;;;;;;25.15;4.07;;;;;;;16.36;27.41;93727.50;5052550;28;20042;-74
2023/01/19 08:18:53;;;;;;;26.48;4.57;;;;;;;16.25;27.91;93707.84;5069184;28;20033;-74
2023/01/19 08:21:18;;;;;;;35.42;5.40;;;;;;;16.18;27.98;93704.34;5066703;28;20051;-74
2023/01/19 08:23:51;;;;;;;33.05;4.60;;;;;;;15.85;28.11;93681.28;5092836;28;20052;-74
2023/01/19 08:26:34;;;;;;;34.03;4.13;;;;;;;16.19;28.04;93695.50;5058507;28;20129;-74
2023/01/19 08:29:02;;;;;;;26.63;4.55;;;;;;;16.26;28.13;93714.69;5058296;28;20028;-74
2023/01/19 08:31:28;;;;;;;26.92;4.22;;;;;;;16.02;28.34;93661.72;5083645;28;20063;-74
2023/01/19 08:33:53;;;;;;;25.40;3.45;;;;;;;16.16;28.15;93693.25;5038124;28;20036;-74
2023/01/19 08:36:20;;;;;;;31.88;4.57;;;;;;;16.17;28.07;93685.22;5078214;28;20032;-75
2023/01/19 08:38:45;;;;;;;34.15;4.72;;;;;;;16.26;28.13;93685.88;5058238;28;20040;-76
2023/01/19 08:41:11;;;;;;;28.73;4.57;;;;;;;16.22;28.62;93692.50;5052952;28;20024;-76
2023/01/19 08:43:37;;;;;;;31.85;3.80;;;;;;;16.07;28.32;93685.53;5036755;28;20024;-75
2023/01/19 08:46:02;;;;;;;28.88;5.30;;;;;;;15.89;28.97;93674.69;5054584;28;20024;-76
2023/01/19 08:48:28;;;;;;;34.45;3.92;;;;;;;16.06;29.56;93717.16;5054675;28;20028;-77
2023/01/19 08:50:53;;;;;;;35.03;4.38;;;;;;;16.12;32.92;93720.81;5054482;28;20020;-77
2023/01/19 08:53:19;;;;;;;25.75;4.07;;;;;;;15.81;28.82;93672.19;5052309;28;20024;-77
2023/01/19 08:55:45;;;;;;;23.92;2.83;;;;;;;15.82;29.46;93689.50;5057230;28;20032;-76
2023/01/19 08:58:10;;;;;;;31.40;4.00;;;;;;;15.93;30.01;93709.16;5074546;28;20542;-76
2023/01/19 09:00:36;;;;;;;18.92;3.30;;;;;;;15.88;28.69;93707.09;5063181;28;20082;-76
2023/01/19 09:03:03;;;;;;;21.27;3.22;;;;;;;15.88;29.56;93670.44;5010177;28;20518;-76
2023/01/19 09:05:30;;;;;;;19.63;3.08;;;;;;;16.07;30.09;93698.63;5063465;28;20087;-76
2023/01/19 09:07:56;;;;;;;27.95;3.58;;;;;;;15.96;29.22;93654.59;5020529;28;20031;-76
2023/01/19 09:10:21;;;;;;;23.70;3.03;;;;;;;15.99;28.92;93651.63;5054501;28;20033;-77
2023/01/19 09:12:47;;;;;;;19.60;3.42;;;;;;;16.05;28.81;93674.44;5074470;28;20032;-77
2023/01/19 09:15:15;;;;;;;19.70;2.92;;;;;;;16.04;28.97;93636.13;5036041;28;20509;-77
2023/01/19 09:17:41;;;;;;;22.55;2.75;;;;;;;16.11;28.73;93640.63;5035457;28;20032;-77
2023/01/19 09:20:07;;;;;;;18.92;3.45;;;;;;;16.11;28.94;93656.34;5028712;28;20033;-76
2023/01/19 09:22:33;;;;;;;21.50;3.13;;;;;;;15.97;28.86;93630.03;5067978;28;20032;-77
2023/01/19 09:24:59;;;;;;;17.35;3.17;;;;;;;16.05;29.26;93644.81;5069210;28;20064;-77
2023/01/19 09:27:24;;;;;;;19.65;2.70;;;;;;;16.14;29.50;93641.06;5061066;28;20021;-77
2023/01/19 09:29:52;;;;;;;28.15;3.33;;;;;;;16.17;29.40;93637.25;5039640;28;20024;-77
2023/01/19 09:32:19;;;;;;;17.70;2.88;;;;;;;16.11;29.81;93651.09;5035528;28;20024;-76
2023/01/19 09:34:44;;;;;;;15.05;2.92;;;;;;;15.95;29.55;93644.31;5036549;28;20043;-76
2023/01/19 09:37:10;;;;;;;19.05;2.97;;;;;;;16.11;28.86;93644.06;5035892;28;20119;-76
2023/01/19 09:39:35;;;;;;;18.10;2.55;;;;;;;16.05;29.23;93643.00;5061195;28;20033;-76
2023/01/19 09:42:19;;;;;;;20.48;2.38;;;;;;;15.89;28.23;93585.66;5054601;28;20039;-77
2023/01/19 09:44:45;;;;;;;20.10;2.30;;;;;;;15.97;28.93;93630.03;5056721;28;20402;-80
2023/01/19 09:47:15;;;;;;;18.13;2.50;;;;;;;16.08;28.90;93641.81;5040614;28;20319;-78
2023/01/19 09:49:46;;;;;;;16.63;2.40;;;;;;;16.09;28.14;93636.38;5035963;28;20028;-79
2023/01/19 09:52:12;;;;;;;21.08;2.72;;;;;;;16.30;28.47;93650.47;5016679;28;20120;-78
2023/01/19 09:54:54;;;;;;;15.85;2.45;;;;;;;16.28;28.75;93642.78;5017507;28;20533;-78
2023/01/19 09:57:21;;;;;;;18.83;2.42;;;;;;;16.37;28.44;93625.09;5050947;28;20508;-75
2023/01/19 09:59:49;;;;;;;21.77;2.85;;;;;;;16.31;28.71;93633.72;5034414;28;20076;-76
2023/01/19 10:02:43;;;;;;;14.57;2.33;;;;;;;16.18;28.45;93641.47;5036526;28;20023;-75
2023/01/19 10:05:35;;;;;;;19.02;2.72;;;;;;;16.04;28.44;93635.31;5053322;28;20178;-76
2023/01/19 10:08:07;;;;;;;15.82;2.42;;;;;;;16.29;28.28;93643.56;5054479;28;20090;-76
2023/01/19 10:10:34;;;;;;;17.85;2.70;;;;;;;16.06;28.82;93635.94;5071509;28;20028;-76
2023/01/19 10:13:27;;;;;;;19.00;3.08;;;;;;;16.01;29.12;93657.44;5036860;28;20032;-76
2023/01/19 10:15:55;;;;;;;9.63;2.45;;;;;;;15.98;29.26;93649.16;5051201;28;20040;-76
2023/01/19 10:18:34;;;;;;;14.43;1.85;;;;;;;15.69;30.65;93618.69;5068152;28;20401;-76
2023/01/19 10:21:39;;;;;;;20.50;2.30;;;;;;;15.90;30.56;93639.63;5036717;28;20089;-79
2023/01/19 10:24:29;;;;;;;11.55;1.90;;;;;;;16.04;29.90;93636.13;5036208;28;20048;-79
2023/01/19 10:26:55;;;;;;;18.10;2.92;;;;;;;15.89;30.09;93638.00;5018718;28;20560;-78
2023/01/19 10:29:35;;;;;;;18.77;6.20;;;;;;;15.94;30.19;93634.84;5034763;28;20037;-79
2023/01/19 10:32:13;;;;;;;16.27;2.92;;;;;;;15.94;30.09;93642.69;5036754;28;20414;-79
2023/01/19 10:34:40;;;;;;;12.63;2.10;;;;;;;15.86;29.81;93638.41;5071196;28;20037;-79
2023/01/19 10:37:30;;;;;;;16.25;2.72;;;;;;;15.81;30.28;93643.38;5036578;28;20036;-79
2023/01/19 10:40:04;;;;;;;16.23;2.63;;;;;;;15.84;30.37;93630.72;5071259;28;20094;-79
2023/01/19 10:42:29;;;;;;;18.45;2.65;;;;;;;15.80;30.61;93615.59;5019879;28;20064;-78
2023/01/19 10:44:55;;;;;;;11.82;2.20;;;;;;;15.81;29.90;93640.75;5052953;28;20071;-79
2023/01/19 10:47:21;;;;;;;15.50;3.35;;;;;;;15.88;29.75;93619.84;5019646;28;20112;-79
2023/01/19 10:49:47;;;;;;;17.45;3.72;;;;;;;16.00;29.89;93613.94;5036692;28;20044;-79
2023/01/19 10:52:38;;;;;;;11.40;2.25;;;;;;;16.05;29.12;93640.38;5036034;28;20031;-80
2023/01/19 10:55:05;;;;;;;12.60;2.38;;;;;;;16.04;29.04;93612.53;5053151;28;20111;-78
2023/01/19 10:57:37;;;;;;;13.55;2.58;;;;;;;16.00;29.16;93616.56;5036207;28;20028;-78
2023/01/19 11:00:06;;;;;;;13.68;2.38;;;;;;;16.04;29.68;93636.13;5036854;28;20064;-79
2023/01/19 11:02:32;;;;;;;14.38;2.03;;;;;;;16.04;29.77;93662.31;5052374;28;20096;-77
2023/01/19 11:04:59;;;;;;;15.10;2.72;;;;;;;15.95;30.23;93626.78;5036239;28;20112;-79
2023/01/19 11:07:34;;;;;;;14.32;1.95;;;;;;;15.92;30.41;93644.69;5035653;28;20020;-78
2023/01/19 11:10:15;;;;;;;14.82;2.65;;;;;;;15.98;30.00;93644.75;5052741;28;20037;-78
2023/01/19 11:13:01;;;;;;;15.20;2.90;;;;;;;16.09;29.78;93636.38;5052276;28;20028;-77
2023/01/19 11:15:48;;;;;;;13.20;2.08;;;;;;;15.98;30.35;93621.16;5038042;28;20109;-78
2023/01/19 11:18:28;;;;;;;12.85;1.80;;;;;;;16.09;30.30;93625.09;5052087;28;20059;-78
2023/01/19 11:20:55;;;;;;;14.77;3.53;;;;;;;16.14;30.25;93633.19;5036166;28;20048;-78
2023/01/19 11:23:31;;;;;;;11.02;2.40;;;;;;;16.29;29.84;93627.84;5035426;28;20057;-77
2023/01/19 11:25:58;;;;;;;14.32;2.35;;;;;;;16.23;29.72;93605.03;5070131;28;20098;-78
2023/01/19 11:28:29;;;;;;;18.40;3.67;;;;;;;16.42;29.71;93622.72;5052075;28;20021;-78
2023/01/19 11:30:55;;;;;;;12.93;4.13;;;;;;;16.59;29.62;93617.19;5038377;28;20082;-77
2023/01/19 11:33:39;;;;;;;14.93;2.42;;;;;;;16.54;28.78;93591.53;5038978;28;20554;-78
2023/01/19 11:36:12;;;;;;;12.95;2.70;;;;;;;16.59;29.12;93614.56;5039307;28;20043;-78
2023/01/19 11:38:42;;;;;;;17.88;4.18;;;;;;;16.75;28.51;93586.22;5039204;28;20025;-77
2023/01/19 11:41:30;;;;;;;15.55;4.35;;;;;;;16.84;27.94;93604.44;5022907;28;20123;-77